Hovedside
METAR-TAF:

METAR-TAF

Lufthavner :

Jakutsk, Russland

breddegrad: 62-01N, lengdegrad: 129-43E, høyde over havet: 103 m

Gjeldene værobservasjon

Denne rapporten ble laget for 33 minutter siden, klokken 19:00 UTC
Vind 2 kt fra Vest-nordvest
Temperatur -42°C
Luftfuktighet 64%
Trykk 1031 hPa
Sikt 10 km eller mer
ingen skyer under 1500 m og ingen bygeskyer

METAR: UEEE 191900Z 30001MPS CAVOK M42/M46 Q1031 R23L/490150 NOSIG RMK QFE764

Tid: 04:33 (19:33 UTC)

Varsel

Denne rapporten ble laget for 2 timer og 33 minutter siden, klokken 17:00 UTC
Varsel gyldig fra 19. klokken 18 UTC til 20. klokken 24 UTC
Vind 2 kt fra skiftende retning
Sikt: 2100 m
dis
Midlertidig
fra 19. klokken 18 UTC til 20. klokken 03 UTC
Sikt: 0300 m
i en høyde av 300 ft
tåke

TAF: UEEE 191700Z 1918/2024 VRB01MPS 2100 BR NSC TXM41/1918Z TNM43/1923Z TEMPO 1918/2003 0300 FG VV003

Værobservasjoner og værvarsel for over 4000 flyplasser (METAR- og TAF-rapporter).

Tilgjengelige stasjoner er representert av de røde og gule prikkene på kartet.

Hold musepekeren over prikken for å se navnet på stasjonen.

Klikk så for å se værobservasjoner og -varsler.

For å forandre kartet kan du klikke på den grønne knappen med svart kryss for å zoome inn, på den grønne knappen med strek for å zoome ut, eller på de grønne pilene for å se tilstøtende kart.


METAR-TAF: